Weather at Hienheim Airfield

Public forecast

Using degrees Celsius for public forecast. Weather courtesy of forecast.io.

Closest aviation weather report (METAR) to Hienheim Airfield

Closest report is Ingolstadt Manching Airport, 13.2 nm (24.5 km) SW. Retrieved 2022/06/29 00:20 UTC (45 minutes ago):

ETSI 290020Z AUTO VRB02KT 9999 // ////// 19/16 Q1016 ///

Closest aviation forecast (TAF) to Hienheim Airfield

Forecast is more than 12 hours old.

Closest forecast is Ingolstadt Manching Airport, 13.2 nm (24.5 km) SW. Retrieved 2022/05/09 14:27 UTC (2 months ago):

TAF ETSI 091315Z 0914/1013 CNL 1315